• Join FlightAware (Why Join?)
  • Login
  • US Flag 
09:31PM EDT


 

Airport Tracker/Info


-or-


 

Live Flight TrackerFlight Track Log ✈ TYR94 ✈ 12-Apr-2013 ✈ KIAD - LOWW / VIE

Flight Track Log - Related Links

Times and Time Zones

All times are in EDT time to prevent confusion due to time zone crossing. See the TYR94 flight status page for this flight to view local times or setup timezone preferences in your user account.

Time Position Orientation Groundspeed Altitude Reporting Facility
EDT Latitude Longitude Course Direction KTS MPH feet Rate Location/Type
06:12PM 40.4265 -75.3049 48° Northeast  Level Estimated
06:13PM 40.5122 -75.1752 49° Northeast  Level Estimated
06:14PM 40.5978 -75.0452 49° Northeast  Level Estimated
06:15PM 40.6833 -74.9149 49° Northeast  Level Estimated
06:16PM 40.7686 -74.7842 49° Northeast  Level Estimated
06:17PM 40.8537 -74.6532 49° Northeast  Level Estimated
06:18PM 40.9388 -74.5219 49° Northeast  Level Estimated
06:19PM 41.0236 -74.3902 49° Northeast  Level Estimated
06:20PM 41.1083 -74.2581 50° Northeast  Level Estimated
06:21PM 41.1929 -74.1258 50° Northeast  Level Estimated
06:22PM 41.2773 -73.9930 50° Northeast  Level Estimated
06:23PM 41.3615 -73.8600 50° Northeast  Level Estimated
06:24PM 41.4456 -73.7266 50° Northeast  Level Estimated
06:25PM 41.5296 -73.5929 50° Northeast  Level Estimated
06:26PM 41.6134 -73.4588 50° Northeast  Level Estimated
06:27PM 41.6970 -73.3243 50° Northeast  Level Estimated
06:28PM 41.7805 -73.1895 50° Northeast  Level Estimated
06:29PM 41.8638 -73.0544 50° Northeast  Level Estimated
06:30PM 41.9469 -72.9189 50° Northeast  Level Estimated
06:31PM 42.0299 -72.7831 51° Northeast  Level Estimated
06:32PM 42.1128 -72.6469 51° Northeast  Level Estimated
06:33PM 42.1954 -72.5103 51° Northeast  Level Estimated
06:34PM 42.2780 -72.3734 51° Northeast  Level Estimated
06:35PM 42.3603 -72.2361 51° Northeast  Level Estimated
06:36PM 42.4425 -72.0985 51° Northeast  Level Estimated
06:37PM 42.5245 -71.9605 51° Northeast  Level Estimated
06:38PM 42.6064 -71.8221 51° Northeast  Level Estimated
06:39PM 42.6881 -71.6834 51° Northeast  Level Estimated
06:40PM 42.7696 -71.5443 51° Northeast  Level Estimated
06:41PM 42.8509 -71.4049 51° Northeast  Level Estimated
06:42PM 42.9321 -71.2650 52° Northeast  Level Estimated
06:43PM 43.0131 -71.1248 52° Northeast  Level Estimated
06:44PM 43.0940 -70.9843 52° Northeast  Level Estimated
06:45PM 43.1746 -70.8434 52° Northeast  Level Estimated
06:46PM 43.2551 -70.7021 52° Northeast  Level Estimated
06:47PM 43.3354 -70.5604 52° Northeast  Level Estimated
06:48PM 43.4156 -70.4183 52° Northeast  Level Estimated
06:49PM 43.4955 -70.2759 52° Northeast  Level Estimated
06:50PM 43.5753 -70.1331 52° Northeast  Level Estimated
06:51PM 43.6549 -69.9899 52° Northeast  Level Estimated
06:52PM 43.7344 -69.8464 53° Northeast  Level Estimated
06:53PM 43.8136 -69.7024 53° Northeast  Level Estimated
06:54PM 43.8927 -69.5581 53° Northeast  Level Estimated
06:55PM 43.9716 -69.4134 53° Northeast  Level Estimated
06:56PM 44.0503 -69.2683 53° Northeast  Level Estimated
06:57PM 44.1288 -69.1228 53° Northeast  Level Estimated
06:58PM 44.2072 -68.9769 53° Northeast  Level Estimated
06:59PM 44.2853 -68.8307 53° Northeast  Level Estimated
07:00PM 44.3633 -68.6841 53° Northeast  Level Estimated
07:01PM 44.4411 -68.5370 53° Northeast  Level Estimated
07:02PM 44.5186 -68.3896 54° Northeast  Level Estimated
07:03PM 44.5960 -68.2418 54° Northeast  Level Estimated
07:04PM 44.6732 -68.0936 54° Northeast  Level Estimated
07:05PM 44.7503 -67.9449 54° Northeast  Level Estimated
07:06PM 44.8271 -67.7960 54° Northeast  Level Estimated
07:07PM 44.9037 -67.6466 54° Northeast  Level Estimated
07:08PM 44.9801 -67.4967 54° Northeast  Level Estimated
07:09PM 45.0564 -67.3465 54° Northeast  Level Estimated
07:10PM 45.1324 -67.1960 54° Northeast  Level Estimated
07:11PM 45.2082 -67.0450 54° Northeast  Level Estimated
07:12PM 45.2839 -66.8935 55° Northeast  Level Estimated
07:13PM 45.3593 -66.7417 55° Northeast  Level Estimated
07:14PM 45.4346 -66.5895 55° Northeast  Level Estimated
07:15PM 45.5096 -66.4369 55° Northeast  Level Estimated
07:16PM 45.5844 -66.2839 55° Northeast  Level Estimated
07:17PM 45.6590 -66.1305 55° Northeast  Level Estimated
07:18PM 45.7335 -65.9766 55° Northeast  Level Estimated
07:19PM 45.8077 -65.8224 55° Northeast  Level Estimated
07:20PM 45.8817 -65.6677 55° Northeast  Level Estimated
07:21PM 45.9554 -65.5126 56° Northeast  Level Estimated
07:22PM 46.0290 -65.3571 56° Northeast  Level Estimated
07:23PM 46.1024 -65.2012 56° Northeast  Level Estimated
07:24PM 46.1756 -65.0449 56° Northeast  Level Estimated
07:25PM 46.2485 -64.8882 56° Northeast  Level Estimated
07:26PM 46.3212 -64.7311 56° Northeast  Level Estimated
07:27PM 46.3938 -64.5735 56° Northeast  Level Estimated
07:28PM 46.4661 -64.4155 56° Northeast  Level Estimated
07:29PM 46.5381 -64.2571 56° Northeast  Level Estimated
07:30PM 46.6100 -64.0983 57° Northeast  Level Estimated
07:31PM 46.6816 -63.9390 57° Northeast  Level Estimated
07:32PM 46.7531 -63.7794 57° Northeast  Level Estimated
07:33PM 46.8243 -63.6193 57° Northeast  Level Estimated
07:34PM 46.8952 -63.4588 57° Northeast  Level Estimated
07:35PM 46.9660 -63.2978 57° Northeast  Level Estimated
07:36PM 47.0365 -63.1365 57° Northeast  Level Estimated
07:37PM 47.1068 -62.9747 57° Northeast  Level Estimated
07:38PM 47.1769 -62.8125 58° Northeast  Level Estimated
07:39PM 47.2467 -62.6498 58° Northeast  Level Estimated
07:40PM 47.3163 -62.4867 58° Northeast  Level Estimated
07:41PM 47.3857 -62.3232 58° Northeast  Level Estimated
07:42PM 47.4548 -62.1593 58° Northeast  Level Estimated
07:43PM 47.5237 -61.9949 58° Northeast  Level Estimated
07:44PM 47.5924 -61.8301 58° Northeast  Level Estimated
07:45PM 47.6608 -61.6649 58° Northeast  Level Estimated
07:46PM 47.7290 -61.4992 58° Northeast  Level Estimated
07:47PM 47.7970 -61.3331 59° Northeast  Level Estimated
07:48PM 47.8647 -61.1666 59° Northeast  Level Estimated
07:49PM 47.9322 -60.9996 59° Northeast  Level Estimated
07:50PM 47.9994 -60.8322 59° Northeast  Level Estimated
07:51PM 48.0664 -60.6644 59° Northeast  Level Estimated
07:52PM 48.1331 -60.4961 59° Northeast  Level Estimated
07:53PM 48.1996 -60.3274 59° Northeast  Level Estimated
07:54PM 48.2659 -60.1582 59° Northeast  Level Estimated
07:55PM 48.3319 -59.9887 60° Northeast  Level Estimated
07:56PM 48.3977 -59.8186 60° Northeast  Level Estimated
07:57PM 48.4632 -59.6482 60° Northeast  Level Estimated
07:58PM 48.5284 -59.4773 60° Northeast  Level Estimated
07:59PM 48.5934 -59.3059 60° Northeast  Level Estimated
08:00PM 48.6581 -59.1341 60° Northeast  Level Estimated
08:01PM 48.7226 -58.9619 60° Northeast  Level Estimated
08:02PM 48.7868 -58.7892 61° Northeast  Level Estimated
08:03PM 48.8508 -58.6161 61° Northeast  Level Estimated
08:04PM 48.9145 -58.4426 61° Northeast  Level Estimated
08:05PM 48.9780 -58.2686 61° Northeast  Level Estimated
08:06PM 49.0412 -58.0941 61° Northeast  Level Estimated
08:07PM 49.1041 -57.9193 61° Northeast  Level Estimated
08:08PM 49.1668 -57.7439 61° Northeast  Level Estimated
08:09PM 49.2291 -57.5682 61° Northeast  Level Estimated
08:10PM 49.2913 -57.3919 62° Northeast  Level Estimated
08:11PM 49.3531 -57.2153 62° Northeast  Level Estimated
08:12PM 49.4147 -57.0382 62° Northeast  Level Estimated
08:13PM 49.4760 -56.8607 62° Northeast  Level Estimated
08:14PM 49.5370 -56.6827 62° Northeast  Level Estimated
08:15PM 49.5978 -56.5042 62° Northeast  Level Estimated
08:16PM 49.6583 -56.3254 62° Northeast  Level Estimated
08:17PM 49.7185 -56.1461 62° Northeast  Level Estimated
08:18PM 49.7785 -55.9663 63° Northeast  Level Estimated
08:19PM 49.8381 -55.7861 63° Northeast  Level Estimated
08:20PM 49.8975 -55.6054 63° Northeast  Level Estimated
08:21PM 49.9566 -55.4244 63° Northeast  Level Estimated
08:22PM 50.0154 -55.2428 63° Northeast  Level Estimated
08:23PM 50.0740 -55.0608 63° Northeast  Level Estimated
08:24PM 50.1322 -54.8784 63° Northeast  Level Estimated
08:25PM 50.1902 -54.6955 64° Northeast  Level Estimated
08:26PM 50.2478 -54.5122 64° Northeast  Level Estimated
08:27PM 50.3052 -54.3285 64° Northeast  Level Estimated
08:28PM 50.3623 -54.1443 64° Northeast  Level Estimated
08:29PM 50.4191 -53.9596 64° Northeast  Level Estimated
08:30PM 50.4756 -53.7745 64° Northeast  Level Estimated
08:31PM 50.5318 -53.5890 64° Northeast  Level Estimated
08:32PM 50.5877 -53.4030 65° Northeast  Level Estimated
08:33PM 50.6434 -53.2166 65° Northeast  Level Estimated
08:34PM 50.6987 -53.0298 65° Northeast  Level Estimated
08:35PM 50.7537 -52.8425 65° Northeast  Level Estimated
08:36PM 50.8084 -52.6548 65° Northeast  Level Estimated
08:37PM 50.8629 -52.4666 65° Northeast  Level Estimated
08:38PM 50.9170 -52.2780 65° Northeast  Level Estimated
08:39PM 50.9708 -52.0889 66° East  Level Estimated
08:40PM 51.0243 -51.8995 66° East  Level Estimated
08:41PM 51.0775 -51.7095 66° East  Level Estimated
08:42PM 51.1304 -51.5192 66° East  Level Estimated
08:43PM 51.1830 -51.3284 66° East  Level Estimated
08:44PM 51.2352 -51.1372 66° East  Level Estimated
08:45PM 51.2872 -50.9455 67° East  Level Estimated
08:46PM 51.3388 -50.7534 67° East  Level Estimated
08:47PM 51.3902 -50.5609 67° East  Level Estimated
08:48PM 51.4412 -50.3680 67° East  Level Estimated
08:49PM 51.4919 -50.1746 67° East  Level Estimated
08:50PM 51.5423 -49.9808 67° East  Level Estimated
08:51PM 51.5923 -49.7865 67° East  Level Estimated
08:52PM 51.6421 -49.5919 68° East  Level Estimated
08:53PM 51.6915 -49.3968 68° East  Level Estimated
08:54PM 51.7406 -49.2012 68° East  Level Estimated
08:55PM 51.7893 -49.0053 68° East  Level Estimated
08:56PM 51.8378 -48.8089 68° East  Level Estimated
08:57PM 51.8859 -48.6121 68° East  Level Estimated
08:58PM 51.9337 -48.4149 68° East  Level Estimated
08:59PM 51.9811 -48.2173 69° East  Level Estimated
09:00PM 52.0283 -48.0193 69° East  Level Estimated
09:01PM 52.0750 -47.8208 69° East  Level Estimated
09:02PM 52.1215 -47.6219 69° East  Level Estimated
09:03PM 52.1676 -47.4226 69° East  Level Estimated
09:04PM 52.2134 -47.2229 69° East  Level Estimated
09:05PM 52.2589 -47.0228 70° East  Level Estimated
09:06PM 52.3040 -46.8223 70° East  Level Estimated
09:07PM 52.3487 -46.6214 70° East  Level Estimated
09:08PM 52.3932 -46.4201 70° East  Level Estimated
09:09PM 52.4372 -46.2183 70° East  Level Estimated
09:10PM 52.4810 -46.0162 70° East  Level Estimated
09:11PM 52.5244 -45.8136 71° East  Level Estimated
09:12PM 52.5674 -45.6107 71° East  Level Estimated
09:13PM 52.6101 -45.4073 71° East  Level Estimated
09:14PM 52.6525 -45.2036 71° East  Level Estimated
09:15PM 52.6945 -44.9995 71° East  Level Estimated
09:16PM 52.7361 -44.7950 71° East  Level Estimated
09:17PM 52.7774 -44.5901 72° East  Level Estimated
09:18PM 52.8184 -44.3848 72° East  Level Estimated
09:19PM 52.8590 -44.1791 72° East  Level Estimated
09:20PM 52.8992 -43.9730 72° East  Level Estimated
09:21PM 52.9391 -43.7666 72° East  Level Estimated
09:22PM 52.9786 -43.5597 72° East  Level Estimated
09:23PM 53.0177 -43.3526 72° East  Level Estimated
09:24PM 53.0565 -43.1450 73° East  Level Estimated
09:25PM 53.0950 -42.9370 73° East  Level Estimated
09:26PM 53.1330 -42.7287 73° East  Level Estimated
09:27PM 53.1707 -42.5200 73° East  Level Estimated
09:28PM 53.2081 -42.3110 73° East  Level Estimated
09:29PM 53.2451 -42.1016 73° East  Level Estimated
09:30PM 53.2817 -41.8918 74° East  Level Estimated
09:31PM 53.3179 -41.6816 74° East  Level Estimated
09:32PM 53.3538 -41.4711 74° East  Level Estimated
09:33PM 53.3893 -41.2603 74° East  Level Estimated
09:34PM 53.4244 -41.0491 74° East  Level Estimated
09:35PM 53.4592 -40.8376 74° East  Level Estimated
09:36PM 53.4935 -40.6257 75° East  Level Estimated
09:37PM 53.5275 -40.4135 75° East  Level Estimated
09:38PM 53.5612 -40.2009 75° East  Level Estimated
09:39PM 53.5944 -39.9880 75° East  Level Estimated
09:40PM 53.6273 -39.7748 75° East  Level Estimated
09:41PM 53.6598 -39.5612 76° East  Level Estimated
09:42PM 53.6919 -39.3473 76° East  Level Estimated
09:43PM 53.7236 -39.1331 76° East  Level Estimated
09:44PM 53.7550 -38.9186 76° East  Level Estimated
09:45PM 53.7859 -38.7037 76° East  Level Estimated
09:46PM 53.8165 -38.4885 76° East  Level Estimated
09:47PM 53.8467 -38.2731 77° East  Level Estimated
09:48PM 53.8765 -38.0573 77° East  Level Estimated
09:49PM 53.9059 -37.8412 77° East  Level Estimated
09:50PM 53.9350 -37.6248 77° East  Level Estimated
09:51PM 53.9636 -37.4081 77° East  Level Estimated
09:52PM 53.9919 -37.1911 77° East  Level Estimated
09:53PM 54.0197 -36.9738 78° East  Level Estimated
09:54PM 54.0472 -36.7562 78° East  Level Estimated
09:55PM 54.0743 -36.5383 78° East  Level Estimated
09:56PM 54.1009 -36.3202 78° East  Level Estimated
09:57PM 54.1272 -36.1018 78° East  Level Estimated
09:58PM 54.1531 -35.8831 78° East  Level Estimated
09:59PM 54.1786 -35.6641 79° East  Level Estimated
10:00PM 54.2037 -35.4449 79° East  Level Estimated
10:01PM 54.2284 -35.2253 79° East  Level Estimated
10:02PM 54.2527 -35.0056 79° East  Level Estimated
10:03PM 54.2766 -34.7855 79° East  Level Estimated
10:04PM 54.3001 -34.5653 80° East  Level Estimated
10:05PM 54.3232 -34.3447 80° East  Level Estimated
10:06PM 54.3459 -34.1240 80° East  Level Estimated
10:07PM 54.3682 -33.9030 80° East  Level Estimated
10:08PM 54.3900 -33.6817 80° East  Level Estimated
10:09PM 54.4115 -33.4602 80° East  Level Estimated
10:10PM 54.4326 -33.2385 81° East  Level Estimated
10:11PM 54.4533 -33.0166 81° East  Level Estimated
10:12PM 54.4735 -32.7944 81° East  Level Estimated
10:13PM 54.4934 -32.5720 81° East  Level Estimated
10:14PM 54.5128 -32.3494 81° East  Level Estimated
10:15PM 54.5318 -32.1267 82° East  Level Estimated
10:16PM 54.5505 -31.9036 82° East  Level Estimated
10:17PM 54.5687 -31.6804 82° East  Level Estimated
10:18PM 54.5865 -31.4570 82° East  Level Estimated
10:19PM 54.6039 -31.2334 82° East  Level Estimated
10:20PM 54.6208 -31.0096 82° East  Level Estimated
10:21PM 54.6374 -30.7857 83° East  Level Estimated
10:22PM 54.6536 -30.5615 83° East  Level Estimated
10:23PM 54.6693 -30.3372 83° East  Level Estimated
10:24PM 54.6846 -30.1127 83° East  Level Estimated
10:25PM 54.6995 -29.8880 83° East  Level Estimated
10:26PM 54.7140 -29.6632 84° East  Level Estimated
10:27PM 54.7281 -29.4382 84° East  Level Estimated
10:28PM 54.7418 -29.2130 84° East  Level Estimated
10:29PM 54.7550 -28.9877 84° East  Level Estimated
10:30PM 54.7678 -28.7623 84° East  Level Estimated
10:31PM 54.7802 -28.5367 84° East  Level Estimated
10:32PM 54.7922 -28.3110 85° East  Level Estimated
10:33PM 54.8038 -28.0851 85° East  Level Estimated
10:34PM 54.8149 -27.8592 85° East  Level Estimated
10:35PM 54.8257 -27.6331 85° East  Level Estimated
10:36PM 54.8360 -27.4068 85° East  Level Estimated
10:37PM 54.8459 -27.1805 86° East  Level Estimated
10:38PM 54.8553 -26.9541 86° East  Level Estimated
10:39PM 54.8644 -26.7275 86° East  Level Estimated
10:40PM 54.8730 -26.5009 86° East  Level Estimated
10:41PM 54.8812 -26.2742 86° East  Level Estimated
10:42PM 54.8890 -26.0473 86° East  Level Estimated
10:43PM 54.8964 -25.8204 87° East  Level Estimated
10:44PM 54.9033 -25.5934 87° East  Level Estimated
10:45PM 54.9098 -25.3664 87° East  Level Estimated
10:46PM 54.9159 -25.1392 87° East  Level Estimated
10:47PM 54.9215 -24.9120 87° East  Level Estimated
10:48PM 54.9268 -24.6847 88° East  Level Estimated
10:49PM 54.9316 -24.4574 88° East  Level Estimated
10:50PM 54.9360 -24.2300 88° East  Level Estimated
10:51PM 54.9400 -24.0026 88° East  Level Estimated
10:52PM 54.9435 -23.7752 88° East  Level Estimated
10:53PM 54.9466 -23.5477 89° East  Level Estimated
10:54PM 54.9493 -23.3201 89° East  Level Estimated
10:55PM 54.9516 -23.0926 89° East  Level Estimated
10:56PM 54.9534 -22.8650 89° East  Level Estimated
10:57PM 54.9548 -22.6374 89° East  Level Estimated
10:58PM 54.9558 -22.4098 89° East  Level Estimated
10:59PM 54.9564 -22.1821 90° East  Level Estimated
11:00PM 54.9565 -21.9545 90° East  Level Estimated
11:01PM 54.9563 -21.7269 90° East  Level Estimated
11:02PM 54.9556 -21.4993 90° East  Level Estimated
11:03PM 54.9544 -21.2716 90° East  Level Estimated
11:04PM 54.9529 -21.0440 91° East  Level Estimated
11:05PM 54.9509 -20.8165 91° East  Level Estimated
11:06PM 54.9485 -20.5889 91° East  Level Estimated
11:07PM 54.9456 -20.3614 91° East  Level Estimated
11:08PM 54.9424 -20.1339 91° East  Level Estimated
11:09PM 54.9387 -19.9065 92° East  Level Estimated
11:10PM 54.9346 -19.6790 92° East  Level Estimated
11:11PM 54.9301 -19.4517 92° East  Level Estimated
11:12PM 54.9251 -19.2244 92° East  Level Estimated
11:13PM 54.9197 -18.9971 92° East  Level Estimated
11:14PM 54.9139 -18.7700 92° East  Level Estimated
11:15PM 54.9077 -18.5428 93° East  Level Estimated
11:16PM 54.9010 -18.3158 93° East  Level Estimated
11:17PM 54.8940 -18.0888 93° East  Level Estimated
11:18PM 54.8865 -17.8619 93° East  Level Estimated
11:19PM 54.8786 -17.6351 93° East  Level Estimated
11:20PM 54.8702 -17.4084 94° East  Level Estimated
11:21PM 54.8615 -17.1818 94° East  Level Estimated
11:22PM 54.8523 -16.9553 94° East  Level Estimated
11:23PM 54.8427 -16.7289 94° East  Level Estimated
11:24PM 54.8326 -16.5026 94° East  Level Estimated
11:25PM 54.8222 -16.2764 94° East  Level Estimated
11:26PM 54.8113 -16.0504 95° East  Level Estimated
11:27PM 54.8000 -15.8245 95° East  Level Estimated
11:28PM 54.7883 -15.5986 95° East  Level Estimated
11:29PM 54.7762 -15.3730 95° East  Level Estimated
11:30PM 54.7636 -15.1475 95° East  Level Estimated
11:31PM 54.7507 -14.9221 96° East  Level Estimated
11:32PM 54.7373 -14.6968 96° East  Level Estimated
11:33PM 54.7235 -14.4717 96° East  Level Estimated
11:34PM 54.7093 -14.2468 96° East  Level Estimated
11:35PM 54.6947 -14.0220 96° East  Level Estimated
11:36PM 54.6796 -13.7974 97° East  Level Estimated
11:37PM 54.6642 -13.5729 97° East  Level Estimated
11:38PM 54.6483 -13.3486 97° East  Level Estimated
11:39PM 54.6320 -13.1245 97° East  Level Estimated
11:40PM 54.6153 -12.9006 97° East  Level Estimated
11:41PM 54.5982 -12.6769 97° East  Level Estimated
11:42PM 54.5807 -12.4534 98° East  Level Estimated
11:43PM 54.5627 -12.2300 98° East  Level Estimated
11:44PM 54.5444 -12.0069 98° East  Level Estimated
11:45PM 54.5256 -11.7839 98° East  Level Estimated
11:46PM 54.5064 -11.5612 98° East  Level Estimated
11:47PM 54.4869 -11.3387 99° East  Level Estimated
11:48PM 54.4669 -11.1164 99° East  Level Estimated
11:49PM 54.4465 -10.8943 99° East  Level Estimated
11:50PM 54.4257 -10.6724 99° East  Level Estimated
11:51PM 54.4045 -10.4508 99° East  Level Estimated
11:52PM 54.3829 -10.2294 99° East  Level Estimated
11:53PM 54.3608 -10.0082 100° East  Level Estimated
11:54PM 54.3384 -9.7873 100° East  Level Estimated
11:55PM 54.3156 -9.5666 100° East  Level Estimated
11:56PM 54.2924 -9.3461 100° East  Level Estimated
11:57PM 54.2687 -9.1259 100° East  Level Estimated
11:58PM 54.2447 -8.9060 101° East  Level Estimated
11:59PM 54.2203 -8.6863 101° East  Level Estimated
12:00AM 54.1954 -8.4669 101° East  Level Estimated
12:01AM 54.1702 -8.2478 101° East  Level Estimated
12:02AM 54.1446 -8.0289 101° East  Level Estimated
12:03AM 54.1186 -7.8103 101° East  Level Estimated
12:04AM 54.0922 -7.5919 102° East  Level Estimated
12:05AM 54.0653 -7.3739 102° East  Level Estimated
12:06AM 54.0381 -7.1561 102° East  Level Estimated
12:07AM 54.0105 -6.9386 102° East  Level Estimated
12:08AM 53.9826 -6.7214 102° East  Level Estimated
12:09AM 53.9542 -6.5045 102° East  Level Estimated
12:10AM 53.9254 -6.2879 103° East  Level Estimated
12:11AM 53.8962 -6.0716 103° East  Level Estimated
12:12AM 53.8667 -5.8556 103° East  Level Estimated
12:13AM 53.8368 -5.6399 103° East  Level Estimated
12:14AM 53.8064 -5.4246 103° East  Level Estimated
12:15AM 53.7757 -5.2095 104° East  Level Estimated
12:16AM 53.7446 -4.9948 104° East  Level Estimated
12:17AM 53.7132 -4.7803 104° East  Level Estimated
12:18AM 53.6813 -4.5662 104° East  Level Estimated
12:19AM 53.6491 -4.3524 104° East  Level Estimated
12:20AM 53.6165 -4.1390 104° East  Level Estimated
12:21AM 53.5835 -3.9258 105° East  Level Estimated
12:22AM 53.5501 -3.7131 105° East  Level Estimated
12:23AM 53.5163 -3.5006 105° East  Level Estimated
12:24AM 53.4822 -3.2885 105° East  Level Estimated
12:25AM 53.4477 -3.0767 105° East  Level Estimated
12:26AM 53.4128 -2.8653 105° East  Level Estimated
12:27AM 53.3776 -2.6542 106° East  Level Estimated
12:28AM 53.3419 -2.4435 106° East  Level Estimated
12:29AM 53.3060 -2.2331 106° East  Level Estimated
12:30AM 53.2696 -2.0231 106° East  Level Estimated
12:31AM 53.2329 -1.8134 106° East  Level Estimated
12:32AM 53.1958 -1.6042 106° East  Level Estimated
12:33AM 53.1583 -1.3952 107° East  Level Estimated
12:34AM 53.1205 -1.1867 107° East  Level Estimated
12:35AM 53.0823 -0.9785 107° East  Level Estimated
12:36AM 53.0437 -0.7706 107° East  Level Estimated
12:37AM 53.0048 -0.5632 107° East  Level Estimated
12:38AM 52.9655 -0.3561 107° East  Level Estimated
12:39AM 52.9259 -0.1494 108° East  Level Estimated
12:40AM 52.8859 0.0569 108° East  Level Estimated
12:41AM 52.8456 0.2629 108° East  Level Estimated
12:42AM 52.8049 0.4684 108° East  Level Estimated
12:43AM 52.7638 0.6736 108° East  Level Estimated
12:44AM 52.7224 0.8784 108° East  Level Estimated
12:45AM 52.6806 1.0828 109° East  Level Estimated
12:46AM 52.6385 1.2868 109° East  Level Estimated
12:47AM 52.5960 1.4904 109° East  Level Estimated
12:48AM 52.5532 1.6936 109° East  Level Estimated
12:49AM 52.5101 1.8964 109° East  Level Estimated
12:50AM 52.4665 2.0988 109° East  Level Estimated
12:51AM 52.4227 2.3008 110° East  Level Estimated
12:52AM 52.3785 2.5024 110° East  Level Estimated
12:53AM 52.3340 2.7036 110° East  Level Estimated
12:54AM 52.2891 2.9044 110° East  Level Estimated
12:55AM 52.2439 3.1048 110° East  Level Estimated
12:56AM 52.1983 3.3048 110° East  Level Estimated
12:57AM 52.1524 3.5043 110° East  Level Estimated
12:58AM 52.1062 3.7035 111° Southeast  Level Estimated
12:59AM 52.0596 3.9022 111° Southeast  Level Estimated
01:00AM 52.0127 4.1006 111° Southeast  Level Estimated
01:01AM 51.9655 4.2985 111° Southeast  Level Estimated
01:02AM 51.9179 4.4960 111° Southeast  Level Estimated
01:03AM 51.8700 4.6930 111° Southeast  Level Estimated
01:04AM 51.8218 4.8897 112° Southeast  Level Estimated
01:05AM 51.7733 5.0859 112° Southeast  Level Estimated
01:06AM 51.7244 5.2817 112° Southeast  Level Estimated
01:07AM 51.6752 5.4771 112° Southeast  Level Estimated
01:08AM 51.6257 5.6720 112° Southeast  Level Estimated
01:09AM 51.5758 5.8666 112° Southeast  Level Estimated
01:10AM 51.5257 6.0607 112° Southeast  Level Estimated
01:11AM 51.4752 6.2543 113° Southeast  Level Estimated
01:12AM 51.4244 6.4476 113° Southeast  Level Estimated
01:13AM 51.3733 6.6404 113° Southeast  Level Estimated
01:14AM 51.3218 6.8328 113° Southeast  Level Estimated
01:15AM 51.2701 7.0247 113° Southeast  Level Estimated
01:16AM 51.2180 7.2162 113° Southeast  Level Estimated
01:17AM 51.1656 7.4073 114° Southeast  Level Estimated
01:18AM 51.1129 7.5979 114° Southeast  Level Estimated
01:19AM 51.0600 7.7882 114° Southeast  Level Estimated
01:20AM 51.0066 7.9779 114° Southeast  Level Estimated
01:21AM 50.9530 8.1673 114° Southeast  Level Estimated
01:22AM 50.8991 8.3562 114° Southeast  Level Estimated
01:23AM 50.8449 8.5446 114° Southeast  Level Estimated
01:24AM 50.7904 8.7326 115° Southeast  Level Estimated
01:25AM 50.7356 8.9202 115° Southeast  Level Estimated
01:26AM 50.6805 9.1074 115° Southeast  Level Estimated
01:27AM 50.6250 9.2941 115° Southeast  Level Estimated
01:28AM 50.5693 9.4803 115° Southeast  Level Estimated
01:29AM 50.5133 9.6662 115° Southeast  Level Estimated
01:30AM 50.4570 9.8515 115° Southeast  Level Estimated
01:31AM 50.4004 10.0365 116° Southeast  Level Estimated
01:32AM 50.3435 10.2210 116° Southeast  Level Estimated
01:33AM 50.2863 10.4050 116° Southeast  Level Estimated
01:34AM 50.2288 10.5886 116° Southeast  Level Estimated
01:35AM 50.1710 10.7718 116° Southeast  Level Estimated
01:36AM 50.1130 10.9545 116° Southeast  Level Estimated
01:37AM 50.0546 11.1368 116° Southeast  Level Estimated
01:38AM 49.9960 11.3186 117° Southeast  Level Estimated
01:39AM 49.9371 11.5000 117° Southeast  Level Estimated
01:40AM 49.8779 11.6810 117° Southeast  Level Estimated
01:41AM 49.8184 11.8615 117° Southeast  Level Estimated
01:42AM 49.7587 12.0415 117° Southeast  Level Estimated
01:43AM 49.6987 12.2212 117° Southeast  Level Estimated
01:44AM 49.6384 12.4003 117° Southeast  Level Estimated
01:45AM 49.5778 12.5791 118° Southeast  Level Estimated
01:46AM 49.5169 12.7573 118° Southeast  Level Estimated
01:47AM 49.4558 12.9352 118° Southeast  Level Estimated
01:48AM 49.3944 13.1126 118° Southeast  Level Estimated
01:49AM 49.3327 13.2895 118° Southeast  Level Estimated
01:50AM 49.2708 13.4660 118° Southeast  Level Estimated
01:51AM 49.2086 13.6421 118° Southeast  Level Estimated
01:52AM 49.1461 13.8177 118° Southeast  Level Estimated
01:53AM 49.0833 13.9929 119° Southeast  Level Estimated
01:54AM 49.0203 14.1676 119° Southeast  Level Estimated
01:55AM 48.9571 14.3419 119° Southeast  Level Estimated
01:56AM 48.8935 14.5158 119° Southeast  Level Estimated
01:57AM 48.8297 14.6892 119° Southeast  Level Estimated
01:58AM 48.7657 14.8621 119° Southeast  Level Estimated
01:59AM 48.7014 15.0346 119° Southeast  Level Estimated
02:00AM 48.6368 15.2067 120° Southeast  Level Estimated
02:01AM 48.5720 15.3784 120° Southeast  Level Estimated
02:02AM 48.5069 15.5496 120° Southeast  Level Estimated
02:03AM 48.4416 15.7203 120° Southeast  Level Estimated
02:04AM 48.3760 15.8906 120° Southeast  Level Estimated
02:05AM 48.3101 16.0605 120° Southeast  Level Estimated
02:06AM 48.2441 16.2300 120° Southeast  Level Estimated
02:07AM 48.1777 16.3990 120° Southeast  Level Estimated
02:08AM 48.1111 16.5675 121° Southeast  Level Estimated
02:09AM 48.1103 16.5697 121° Southeast  Level Estimated
02:10AM 48.1103 16.5697 146° Southeast  Level Estimated
02:11AM 48.1103 16.5697 146° Southeast  Level Estimated
02:12AM 48.1103 16.5697 146° Southeast  Level Estimated
02:13AM 48.1103 16.5697 146° Southeast  Level Estimated
02:14AM 48.1103 16.5697 146° Southeast  Level Estimated
02:15AM 48.1103 16.5697 146° Southeast  Level Estimated
02:16AM 48.1103 16.5697 146° Southeast  Level Estimated
02:17AM 48.1103 16.5697 146° Southeast  Level Estimated